Buchanan Corner, Indiana
Current Conditions -  °F | °C
As of 11:14 AM on Thursday 27 Nov 2014 (Local Time) from KHUF Reporting Station
Haze Haze  
Wind Chill: 17°   Ceiling: 1800
Heat Index: 28°   Visibility: 6mi
Dew Point: 21°   Wind: 13mph
Humidity: 75%   Direction: 300°WNW
Pressure: 30.39"   Gusts: NA
Location:  39.2016°N, 87.1874°W
Report Text: KHUF 271614Z 30011KT 6SM HZ BKN018 OVC060 M02/M06 A3039 RMK AO2 T10221061
Loading
Personal Weather Stations






























Interactive Weather Map New forecast layout! Learn more

10-Day Weather Forecast

Advertisements
Track Severe Weather on mobile